createdAt,value
2022-10-29T00:04:50.057Z,13.50
2022-10-29T00:12:25.063Z,13.44
2022-10-29T00:20:00.061Z,13.50
2022-10-29T00:27:35.095Z,13.58
2022-10-29T00:35:08.879Z,13.71
2022-10-29T00:42:43.884Z,13.83
2022-10-29T00:50:17.531Z,14.47
2022-10-29T00:57:56.466Z,14.82
2022-10-29T01:05:32.307Z,15.04
2022-10-29T01:13:20.165Z,15.17
2022-10-29T01:21:30.657Z,15.29
2022-10-29T01:29:21.070Z,15.37
2022-10-29T01:37:01.828Z,15.39
2022-10-29T01:44:40.567Z,15.27
2022-10-29T01:52:17.664Z,15.09
2022-10-29T01:59:56.103Z,14.91
2022-10-29T02:07:46.240Z,14.73
2022-10-29T02:15:24.461Z,14.62
2022-10-29T02:22:59.918Z,14.49
2022-10-29T02:30:33.635Z,14.41
2022-10-29T02:38:08.762Z,14.40
2022-10-29T02:45:42.392Z,14.42
2022-10-29T02:53:17.439Z,14.46
2022-10-29T03:00:51.539Z,14.47
2022-10-29T03:08:26.490Z,14.55
2022-10-29T03:16:00.139Z,14.48
2022-10-29T03:23:35.180Z,14.31
2022-10-29T03:31:08.600Z,14.19
2022-10-29T03:38:43.484Z,14.08
2022-10-29T03:46:17.071Z,13.98
2022-10-29T03:53:52.119Z,13.90
2022-10-29T04:01:26.697Z,13.82
2022-10-29T04:09:01.779Z,13.75
2022-10-29T04:16:35.189Z,13.69
2022-10-29T04:32:04.642Z,13.55
2022-10-29T04:39:39.745Z,13.48
2022-10-29T04:47:13.446Z,13.43
2022-10-29T04:54:48.547Z,13.39
2022-10-29T05:02:22.167Z,13.34
2022-10-29T05:09:57.137Z,13.30
2022-10-29T05:17:30.600Z,13.28
2022-10-29T05:25:06.532Z,13.26
2022-10-29T05:32:40.091Z,13.19
2022-10-29T05:40:15.289Z,13.13
2022-10-29T05:47:49.515Z,13.05
2022-10-29T05:55:24.788Z,12.99
2022-10-29T06:02:59.479Z,12.88
2022-10-29T06:10:34.797Z,12.78
2022-10-29T06:18:08.855Z,12.77
2022-10-29T06:25:43.855Z,12.74
2022-10-29T06:33:17.753Z,12.71
2022-10-29T06:40:54.813Z,12.74
2022-10-29T06:48:28.689Z,12.76
2022-10-29T06:56:03.811Z,12.82
2022-10-29T07:03:37.486Z,12.99
2022-10-29T07:11:13.248Z,13.17
2022-10-29T07:18:46.897Z,13.32
2022-10-29T07:26:21.907Z,13.41
2022-10-29T07:33:55.452Z,13.49
2022-10-29T07:41:30.540Z,13.62
2022-10-29T07:49:04.473Z,13.77
2022-10-29T07:56:42.376Z,14.05
2022-10-29T08:04:19.616Z,14.39
2022-10-29T08:11:54.836Z,14.79
2022-10-29T08:19:30.022Z,14.94
2022-10-29T08:27:05.249Z,15.18
2022-10-29T08:34:40.990Z,15.52
2022-10-29T08:42:29.567Z,15.85
2022-10-29T08:50:12.139Z,16.11
2022-10-29T08:57:53.581Z,16.33
2022-10-29T09:05:33.909Z,16.45
2022-10-29T09:13:26.804Z,16.63
2022-10-29T09:21:09.267Z,16.76
2022-10-29T09:28:55.126Z,16.90
2022-10-29T09:36:31.879Z,17.08
2022-10-29T09:44:16.094Z,17.16
2022-10-29T09:51:54.704Z,17.20
2022-10-29T09:59:32.999Z,17.25
2022-10-29T10:07:08.396Z,17.28
2022-10-29T10:14:44.616Z,17.31
2022-10-29T10:22:20.916Z,17.35
2022-10-29T10:30:16.019Z,17.42
2022-10-29T10:37:49.734Z,17.54
2022-10-29T10:45:35.125Z,17.65
2022-10-29T10:53:17.535Z,17.82
2022-10-29T11:00:59.172Z,17.94
2022-10-29T11:08:37.886Z,18.05
2022-10-29T11:16:20.934Z,18.21
2022-10-29T11:24:02.893Z,18.25
2022-10-29T11:31:46.353Z,18.36
2022-10-29T11:39:24.935Z,18.53
2022-10-29T11:47:14.053Z,18.80
2022-10-29T11:55:00.585Z,18.93
2022-10-29T12:02:52.448Z,18.99
2022-10-29T12:10:41.108Z,19.08
2022-10-29T12:18:26.752Z,19.16
2022-10-29T12:26:06.580Z,19.29
2022-10-29T12:33:49.360Z,19.33
2022-10-29T12:41:27.041Z,19.47
2022-10-29T12:49:12.109Z,19.52
2022-10-29T12:56:49.519Z,19.49
2022-10-29T13:04:28.606Z,19.55
2022-10-29T13:12:03.981Z,19.55
2022-10-29T13:19:49.435Z,19.60
2022-10-29T13:27:36.210Z,19.68
2022-10-29T13:35:42.191Z,19.71
2022-10-29T13:43:18.085Z,19.68
2022-10-29T13:50:55.757Z,19.64
2022-10-29T13:58:33.448Z,19.58
2022-10-29T14:06:14.766Z,19.51
2022-10-29T14:13:50.435Z,19.45
2022-10-29T14:21:28.227Z,19.39
2022-10-29T14:29:15.210Z,19.34
2022-10-29T14:36:52.385Z,19.26
2022-10-29T14:44:28.743Z,19.18
2022-10-29T14:52:07.417Z,19.12
2022-10-29T14:59:48.608Z,19.06
2022-10-29T15:07:35.500Z,19.02
2022-10-29T15:15:10.846Z,18.93
2022-10-29T15:22:46.563Z,18.87
2022-10-29T15:30:21.286Z,18.76
2022-10-29T15:37:56.746Z,18.68
2022-10-29T15:45:30.577Z,18.57
2022-10-29T15:53:07.955Z,18.45
2022-10-29T16:00:41.818Z,18.36
2022-10-29T16:08:26.168Z,18.28
2022-10-29T16:15:59.851Z,18.17
2022-10-29T16:23:37.649Z,18.09
2022-10-29T16:31:20.508Z,18.00
2022-10-29T16:38:55.663Z,17.92
2022-10-29T16:46:29.132Z,17.85
2022-10-29T16:54:04.295Z,17.76
2022-10-29T17:01:37.921Z,17.66
2022-10-29T17:09:14.212Z,17.57
2022-10-29T17:16:47.846Z,17.47
2022-10-29T17:24:22.861Z,17.40
2022-10-29T17:31:56.817Z,17.33
2022-10-29T17:39:31.812Z,17.25
2022-10-29T17:47:05.391Z,17.16
2022-10-29T17:54:40.392Z,17.07
2022-10-29T18:02:14.021Z,16.96
2022-10-29T18:09:49.117Z,16.88
2022-10-29T18:17:22.594Z,16.78
2022-10-29T18:24:57.590Z,16.62
2022-10-29T18:32:31.215Z,16.49
2022-10-29T18:40:07.464Z,16.38
2022-10-29T18:47:40.985Z,16.23
2022-10-29T18:55:16.717Z,16.11
2022-10-29T19:02:50.644Z,16.01
2022-10-29T19:10:25.655Z,15.94
2022-10-29T19:17:59.334Z,15.85
2022-10-29T19:25:40.619Z,15.80
2022-10-29T19:33:14.310Z,15.72
2022-10-29T19:40:49.290Z,15.60
2022-10-29T19:48:22.891Z,15.53
2022-10-29T19:55:58.191Z,15.43
2022-10-29T20:03:32.058Z,15.37
2022-10-29T20:11:07.846Z,15.30
2022-10-29T20:18:41.499Z,15.24
2022-10-29T20:26:16.483Z,15.21
2022-10-29T20:33:50.374Z,15.16
2022-10-29T20:41:25.480Z,15.09
2022-10-29T20:48:59.167Z,15.02
2022-10-29T20:56:36.521Z,14.98
2022-10-29T21:04:10.188Z,14.92
2022-10-29T21:11:45.220Z,14.82
2022-10-29T21:19:18.752Z,14.79
2022-10-29T21:26:53.719Z,14.77
2022-10-29T21:34:27.636Z,14.72
2022-10-29T21:42:02.609Z,14.71
2022-10-29T21:49:36.145Z,14.63
2022-10-29T21:57:11.109Z,14.60
2022-10-29T22:04:44.760Z,14.57
2022-10-29T22:12:19.882Z,14.56
2022-10-29T22:19:53.476Z,14.53
2022-10-29T22:27:28.462Z,14.48
2022-10-29T22:35:02.074Z,14.46
2022-10-29T22:42:37.427Z,14.44
2022-10-29T22:50:13.837Z,14.43
2022-10-29T22:57:48.885Z,14.41
2022-10-29T23:05:22.413Z,14.36
2022-10-29T23:12:57.471Z,14.32
2022-10-29T23:20:30.974Z,14.28
2022-10-29T23:28:05.979Z,14.26
2022-10-29T23:35:39.362Z,14.22
2022-10-29T23:43:15.277Z,14.15
2022-10-29T23:50:49.922Z,14.08
2022-10-29T23:58:25.191Z,14.00
